sensor_id;sensor_type;location;lat;lon;timestamp;P1;durP1;ratioP1;P2;durP2;ratioP2
47219;SDS011;32961;51.936;4.788;2023-08-07T00:00:49;14.43;;;2.90;;
47219;SDS011;32961;51.936;4.788;2023-08-07T00:03:19;14.57;;;3.17;;
47219;SDS011;32961;51.936;4.788;2023-08-07T00:05:47;13.18;;;2.33;;
47219;SDS011;32961;51.936;4.788;2023-08-07T00:08:15;13.23;;;2.50;;
47219;SDS011;32961;51.936;4.788;2023-08-07T00:10:43;15.32;;;2.50;;
47219;SDS011;32961;51.936;4.788;2023-08-07T00:13:11;10.23;;;2.55;;
47219;SDS011;32961;51.936;4.788;2023-08-07T00:15:38;20.05;;;2.63;;
47219;SDS011;32961;51.936;4.788;2023-08-07T00:18:06;16.67;;;3.17;;
47219;SDS011;32961;51.936;4.788;2023-08-07T00:20:35;13.77;;;2.58;;
47219;SDS011;32961;51.936;4.788;2023-08-07T00:23:04;10.45;;;2.38;;
47219;SDS011;32961;51.936;4.788;2023-08-07T00:25:31;14.60;;;2.50;;
47219;SDS011;32961;51.936;4.788;2023-08-07T00:27:59;13.70;;;2.42;;
47219;SDS011;32961;51.936;4.788;2023-08-07T00:30:27;13.52;;;2.70;;
47219;SDS011;32961;51.936;4.788;2023-08-07T00:32:55;15.05;;;2.67;;
47219;SDS011;32961;51.936;4.788;2023-08-07T00:35:22;19.35;;;3.15;;
47219;SDS011;32961;51.936;4.788;2023-08-07T00:37:52;11.50;;;2.30;;
47219;SDS011;32961;51.936;4.788;2023-08-07T00:40:19;16.08;;;2.97;;
47219;SDS011;32961;51.936;4.788;2023-08-07T00:42:47;14.88;;;2.80;;
47219;SDS011;32961;51.936;4.788;2023-08-07T00:45:15;11.40;;;2.40;;
47219;SDS011;32961;51.936;4.788;2023-08-07T00:47:44;13.35;;;3.17;;
47219;SDS011;32961;51.936;4.788;2023-08-07T00:50:12;14.75;;;3.75;;
47219;SDS011;32961;51.936;4.788;2023-08-07T00:52:40;11.63;;;2.65;;
47219;SDS011;32961;51.936;4.788;2023-08-07T00:55:09;13.77;;;2.65;;
47219;SDS011;32961;51.936;4.788;2023-08-07T00:57:37;8.60;;;2.40;;
47219;SDS011;32961;51.936;4.788;2023-08-07T01:00:05;9.77;;;2.20;;
47219;SDS011;32961;51.936;4.788;2023-08-07T01:02:34;10.50;;;2.50;;
47219;SDS011;32961;51.936;4.788;2023-08-07T01:05:02;7.10;;;2.03;;
47219;SDS011;32961;51.936;4.788;2023-08-07T01:07:30;9.65;;;2.45;;
47219;SDS011;32961;51.936;4.788;2023-08-07T01:09:58;11.15;;;2.60;;
47219;SDS011;32961;51.936;4.788;2023-08-07T01:12:30;8.20;;;2.40;;
47219;SDS011;32961;51.936;4.788;2023-08-07T01:15:03;17.33;;;3.47;;
47219;SDS011;32961;51.936;4.788;2023-08-07T01:17:37;12.95;;;2.85;;
47219;SDS011;32961;51.936;4.788;2023-08-07T01:20:09;10.98;;;3.03;;
47219;SDS011;32961;51.936;4.788;2023-08-07T01:22:39;17.35;;;2.92;;
47219;SDS011;32961;51.936;4.788;2023-08-07T01:25:07;13.30;;;3.25;;
47219;SDS011;32961;51.936;4.788;2023-08-07T01:27:36;21.05;;;3.53;;
47219;SDS011;32961;51.936;4.788;2023-08-07T01:30:09;11.80;;;2.88;;
47219;SDS011;32961;51.936;4.788;2023-08-07T01:32:47;14.90;;;3.10;;
47219;SDS011;32961;51.936;4.788;2023-08-07T01:35:22;32.85;;;4.05;;
47219;SDS011;32961;51.936;4.788;2023-08-07T01:37:54;22.27;;;5.82;;
47219;SDS011;32961;51.936;4.788;2023-08-07T01:40:23;13.07;;;3.05;;
47219;SDS011;32961;51.936;4.788;2023-08-07T01:42:51;12.77;;;2.83;;
47219;SDS011;32961;51.936;4.788;2023-08-07T01:45:23;15.05;;;2.88;;
47219;SDS011;32961;51.936;4.788;2023-08-07T01:47:52;14.60;;;3.10;;
47219;SDS011;32961;51.936;4.788;2023-08-07T01:50:20;14.70;;;3.40;;
47219;SDS011;32961;51.936;4.788;2023-08-07T01:52:49;17.52;;;4.07;;
47219;SDS011;32961;51.936;4.788;2023-08-07T01:55:19;16.65;;;3.10;;
47219;SDS011;32961;51.936;4.788;2023-08-07T01:57:48;13.10;;;2.85;;
47219;SDS011;32961;51.936;4.788;2023-08-07T02:00:16;12.77;;;3.00;;
47219;SDS011;32961;51.936;4.788;2023-08-07T02:02:44;19.58;;;4.03;;
47219;SDS011;32961;51.936;4.788;2023-08-07T02:05:13;13.00;;;3.22;;
47219;SDS011;32961;51.936;4.788;2023-08-07T02:07:42;15.10;;;3.90;;
47219;SDS011;32961;51.936;4.788;2023-08-07T02:10:10;13.05;;;2.95;;
47219;SDS011;32961;51.936;4.788;2023-08-07T02:12:39;18.70;;;4.50;;
47219;SDS011;32961;51.936;4.788;2023-08-07T02:15:07;11.68;;;3.38;;
47219;SDS011;32961;51.936;4.788;2023-08-07T02:17:36;12.80;;;2.60;;
47219;SDS011;32961;51.936;4.788;2023-08-07T02:20:05;12.55;;;3.58;;
47219;SDS011;32961;51.936;4.788;2023-08-07T02:22:34;9.00;;;2.00;;
47219;SDS011;32961;51.936;4.788;2023-08-07T02:25:02;11.30;;;3.25;;
47219;SDS011;32961;51.936;4.788;2023-08-07T02:27:30;11.05;;;2.38;;
47219;SDS011;32961;51.936;4.788;2023-08-07T02:29:59;14.02;;;2.85;;
47219;SDS011;32961;51.936;4.788;2023-08-07T02:32:29;15.10;;;2.72;;
47219;SDS011;32961;51.936;4.788;2023-08-07T02:34:57;15.88;;;2.53;;
47219;SDS011;32961;51.936;4.788;2023-08-07T02:37:25;14.18;;;2.67;;
47219;SDS011;32961;51.936;4.788;2023-08-07T02:39:52;15.25;;;3.08;;
47219;SDS011;32961;51.936;4.788;2023-08-07T02:42:20;17.10;;;3.78;;
47219;SDS011;32961;51.936;4.788;2023-08-07T02:44:48;9.77;;;2.72;;
47219;SDS011;32961;51.936;4.788;2023-08-07T02:47:17;18.98;;;4.32;;
47219;SDS011;32961;51.936;4.788;2023-08-07T02:49:45;13.10;;;3.60;;
47219;SDS011;32961;51.936;4.788;2023-08-07T02:52:13;15.98;;;3.25;;
47219;SDS011;32961;51.936;4.788;2023-08-07T02:54:41;14.38;;;3.22;;
47219;SDS011;32961;51.936;4.788;2023-08-07T02:57:08;18.77;;;3.50;;
47219;SDS011;32961;51.936;4.788;2023-08-07T02:59:36;15.43;;;2.88;;
47219;SDS011;32961;51.936;4.788;2023-08-07T03:02:04;12.60;;;2.90;;
47219;SDS011;32961;51.936;4.788;2023-08-07T03:04:34;10.60;;;2.60;;
47219;SDS011;32961;51.936;4.788;2023-08-07T03:07:02;18.60;;;2.90;;
47219;SDS011;32961;51.936;4.788;2023-08-07T03:09:30;13.68;;;3.00;;
47219;SDS011;32961;51.936;4.788;2023-08-07T03:11:58;14.70;;;3.88;;
47219;SDS011;32961;51.936;4.788;2023-08-07T03:14:30;14.52;;;3.85;;
47219;SDS011;32961;51.936;4.788;2023-08-07T03:16:59;12.25;;;2.20;;
47219;SDS011;32961;51.936;4.788;2023-08-07T03:19:27;7.82;;;1.65;;
47219;SDS011;32961;51.936;4.788;2023-08-07T03:21:56;8.00;;;1.77;;
47219;SDS011;32961;51.936;4.788;2023-08-07T03:24:24;8.75;;;2.15;;
47219;SDS011;32961;51.936;4.788;2023-08-07T03:26:52;7.78;;;1.63;;
47219;SDS011;32961;51.936;4.788;2023-08-07T03:29:20;9.18;;;2.13;;
47219;SDS011;32961;51.936;4.788;2023-08-07T03:31:48;9.52;;;2.03;;
47219;SDS011;32961;51.936;4.788;2023-08-07T03:34:15;7.22;;;1.75;;
47219;SDS011;32961;51.936;4.788;2023-08-07T03:36:44;15.65;;;3.15;;
47219;SDS011;32961;51.936;4.788;2023-08-07T03:39:13;9.35;;;2.38;;
47219;SDS011;32961;51.936;4.788;2023-08-07T03:41:41;10.05;;;2.28;;
47219;SDS011;32961;51.936;4.788;2023-08-07T03:44:09;12.18;;;2.78;;
47219;SDS011;32961;51.936;4.788;2023-08-07T03:46:36;19.20;;;3.55;;
47219;SDS011;32961;51.936;4.788;2023-08-07T03:49:05;14.70;;;3.28;;
47219;SDS011;32961;51.936;4.788;2023-08-07T03:51:33;13.77;;;3.47;;
47219;SDS011;32961;51.936;4.788;2023-08-07T03:54:01;15.55;;;3.03;;
47219;SDS011;32961;51.936;4.788;2023-08-07T03:56:30;10.18;;;2.58;;
47219;SDS011;32961;51.936;4.788;2023-08-07T03:59:02;11.43;;;2.35;;
47219;SDS011;32961;51.936;4.788;2023-08-07T04:01:30;12.68;;;2.65;;
47219;SDS011;32961;51.936;4.788;2023-08-07T04:03:58;11.73;;;2.03;;
47219;SDS011;32961;51.936;4.788;2023-08-07T04:06:25;14.82;;;3.17;;
47219;SDS011;32961;51.936;4.788;2023-08-07T04:08:55;15.68;;;3.45;;
47219;SDS011;32961;51.936;4.788;2023-08-07T04:11:22;10.18;;;2.10;;
47219;SDS011;32961;51.936;4.788;2023-08-07T04:13:52;6.28;;;2.10;;
47219;SDS011;32961;51.936;4.788;2023-08-07T04:16:19;11.57;;;3.05;;
47219;SDS011;32961;51.936;4.788;2023-08-07T04:18:48;11.10;;;2.13;;
47219;SDS011;32961;51.936;4.788;2023-08-07T04:21:15;14.07;;;2.22;;
47219;SDS011;32961;51.936;4.788;2023-08-07T04:23:43;14.82;;;3.58;;
47219;SDS011;32961;51.936;4.788;2023-08-07T04:26:11;11.65;;;3.08;;
47219;SDS011;32961;51.936;4.788;2023-08-07T04:28:40;15.73;;;2.85;;
47219;SDS011;32961;51.936;4.788;2023-08-07T04:31:09;9.57;;;2.13;;
47219;SDS011;32961;51.936;4.788;2023-08-07T04:33:37;13.07;;;3.03;;
47219;SDS011;32961;51.936;4.788;2023-08-07T04:36:05;19.20;;;2.50;;
47219;SDS011;32961;51.936;4.788;2023-08-07T04:38:33;16.02;;;2.65;;
47219;SDS011;32961;51.936;4.788;2023-08-07T04:41:01;10.30;;;2.35;;
47219;SDS011;32961;51.936;4.788;2023-08-07T04:43:29;19.25;;;2.70;;
47219;SDS011;32961;51.936;4.788;2023-08-07T04:45:59;14.98;;;2.80;;
47219;SDS011;32961;51.936;4.788;2023-08-07T04:48:28;15.70;;;3.10;;
47219;SDS011;32961;51.936;4.788;2023-08-07T04:50:57;25.58;;;4.15;;
47219;SDS011;32961;51.936;4.788;2023-08-07T04:53:25;14.98;;;3.08;;
47219;SDS011;32961;51.936;4.788;2023-08-07T04:55:53;18.50;;;4.25;;
47219;SDS011;32961;51.936;4.788;2023-08-07T04:58:21;14.50;;;2.67;;
47219;SDS011;32961;51.936;4.788;2023-08-07T05:00:53;10.05;;;2.28;;
47219;SDS011;32961;51.936;4.788;2023-08-07T05:03:22;14.50;;;2.67;;
47219;SDS011;32961;51.936;4.788;2023-08-07T05:05:51;14.60;;;2.70;;
47219;SDS011;32961;51.936;4.788;2023-08-07T05:08:25;9.45;;;2.28;;
47219;SDS011;32961;51.936;4.788;2023-08-07T05:10:53;16.27;;;2.78;;
47219;SDS011;32961;51.936;4.788;2023-08-07T05:13:21;16.85;;;3.22;;
47219;SDS011;32961;51.936;4.788;2023-08-07T05:15:49;19.45;;;3.63;;
47219;SDS011;32961;51.936;4.788;2023-08-07T05:18:17;6.97;;;2.25;;
47219;SDS011;32961;51.936;4.788;2023-08-07T05:20:45;15.10;;;3.33;;
47219;SDS011;32961;51.936;4.788;2023-08-07T05:23:14;14.93;;;2.85;;
47219;SDS011;32961;51.936;4.788;2023-08-07T05:25:44;14.32;;;2.97;;
47219;SDS011;32961;51.936;4.788;2023-08-07T05:28:15;17.07;;;2.83;;
47219;SDS011;32961;51.936;4.788;2023-08-07T05:30:43;13.30;;;2.50;;
47219;SDS011;32961;51.936;4.788;2023-08-07T05:33:10;14.95;;;2.33;;
47219;SDS011;32961;51.936;4.788;2023-08-07T05:35:41;13.82;;;2.78;;
47219;SDS011;32961;51.936;4.788;2023-08-07T05:38:09;14.55;;;3.47;;
47219;SDS011;32961;51.936;4.788;2023-08-07T05:40:38;13.15;;;2.30;;
47219;SDS011;32961;51.936;4.788;2023-08-07T05:43:07;8.45;;;1.95;;
47219;SDS011;32961;51.936;4.788;2023-08-07T05:45:35;9.63;;;2.95;;
47219;SDS011;32961;51.936;4.788;2023-08-07T05:48:03;13.55;;;2.58;;
47219;SDS011;32961;51.936;4.788;2023-08-07T05:50:31;10.68;;;2.10;;
47219;SDS011;32961;51.936;4.788;2023-08-07T05:52:58;10.38;;;2.17;;
47219;SDS011;32961;51.936;4.788;2023-08-07T05:55:26;17.63;;;2.58;;
47219;SDS011;32961;51.936;4.788;2023-08-07T05:57:55;10.00;;;2.35;;
47219;SDS011;32961;51.936;4.788;2023-08-07T06:00:23;12.90;;;2.03;;
47219;SDS011;32961;51.936;4.788;2023-08-07T06:02:51;12.80;;;2.83;;
47219;SDS011;32961;51.936;4.788;2023-08-07T06:05:19;17.65;;;2.78;;
47219;SDS011;32961;51.936;4.788;2023-08-07T06:07:47;13.50;;;3.05;;
47219;SDS011;32961;51.936;4.788;2023-08-07T06:10:15;14.07;;;2.83;;
47219;SDS011;32961;51.936;4.788;2023-08-07T06:12:43;10.63;;;2.58;;
47219;SDS011;32961;51.936;4.788;2023-08-07T06:15:12;12.02;;;2.47;;
47219;SDS011;32961;51.936;4.788;2023-08-07T06:17:40;15.07;;;2.38;;
47219;SDS011;32961;51.936;4.788;2023-08-07T06:20:08;13.55;;;2.85;;
47219;SDS011;32961;51.936;4.788;2023-08-07T06:22:38;18.70;;;4.78;;
47219;SDS011;32961;51.936;4.788;2023-08-07T06:25:06;20.23;;;3.85;;
47219;SDS011;32961;51.936;4.788;2023-08-07T06:27:34;10.60;;;2.70;;
47219;SDS011;32961;51.936;4.788;2023-08-07T06:30:02;9.40;;;2.03;;
47219;SDS011;32961;51.936;4.788;2023-08-07T06:32:33;9.23;;;2.33;;
47219;SDS011;32961;51.936;4.788;2023-08-07T06:35:01;12.38;;;2.60;;
47219;SDS011;32961;51.936;4.788;2023-08-07T06:37:29;9.95;;;2.40;;
47219;SDS011;32961;51.936;4.788;2023-08-07T06:39:57;14.82;;;2.70;;
47219;SDS011;32961;51.936;4.788;2023-08-07T06:42:25;9.90;;;2.00;;
47219;SDS011;32961;51.936;4.788;2023-08-07T06:44:53;11.15;;;2.95;;
47219;SDS011;32961;51.936;4.788;2023-08-07T06:47:21;10.38;;;2.55;;
47219;SDS011;32961;51.936;4.788;2023-08-07T06:49:50;10.73;;;2.85;;
47219;SDS011;32961;51.936;4.788;2023-08-07T06:52:18;12.48;;;2.53;;
47219;SDS011;32961;51.936;4.788;2023-08-07T06:54:46;11.80;;;3.25;;
47219;SDS011;32961;51.936;4.788;2023-08-07T06:57:13;16.08;;;3.25;;
47219;SDS011;32961;51.936;4.788;2023-08-07T06:59:41;13.15;;;2.22;;
47219;SDS011;32961;51.936;4.788;2023-08-07T07:02:09;16.27;;;4.45;;
47219;SDS011;32961;51.936;4.788;2023-08-07T07:04:37;17.88;;;3.50;;
47219;SDS011;32961;51.936;4.788;2023-08-07T07:07:06;14.25;;;2.63;;
47219;SDS011;32961;51.936;4.788;2023-08-07T07:09:34;9.90;;;2.97;;
47219;SDS011;32961;51.936;4.788;2023-08-07T07:12:02;6.78;;;2.15;;
47219;SDS011;32961;51.936;4.788;2023-08-07T07:14:31;13.45;;;2.80;;
47219;SDS011;32961;51.936;4.788;2023-08-07T07:16:59;9.27;;;2.33;;
47219;SDS011;32961;51.936;4.788;2023-08-07T07:19:27;7.35;;;1.98;;
47219;SDS011;32961;51.936;4.788;2023-08-07T07:21:55;14.60;;;2.35;;
47219;SDS011;32961;51.936;4.788;2023-08-07T07:24:25;12.27;;;3.92;;
47219;SDS011;32961;51.936;4.788;2023-08-07T07:26:53;11.25;;;2.63;;
47219;SDS011;32961;51.936;4.788;2023-08-07T07:29:20;11.70;;;2.78;;
47219;SDS011;32961;51.936;4.788;2023-08-07T07:31:50;9.07;;;2.08;;
47219;SDS011;32961;51.936;4.788;2023-08-07T07:34:18;12.95;;;2.65;;
47219;SDS011;32961;51.936;4.788;2023-08-07T07:36:46;7.72;;;2.17;;
47219;SDS011;32961;51.936;4.788;2023-08-07T07:39:13;11.02;;;2.85;;
47219;SDS011;32961;51.936;4.788;2023-08-07T07:41:43;9.75;;;2.50;;
47219;SDS011;32961;51.936;4.788;2023-08-07T07:44:11;8.75;;;1.90;;
47219;SDS011;32961;51.936;4.788;2023-08-07T07:46:39;11.45;;;1.98;;
47219;SDS011;32961;51.936;4.788;2023-08-07T07:49:07;9.38;;;1.70;;
47219;SDS011;32961;51.936;4.788;2023-08-07T07:51:34;13.13;;;3.15;;
47219;SDS011;32961;51.936;4.788;2023-08-07T07:54:03;13.45;;;2.38;;
47219;SDS011;32961;51.936;4.788;2023-08-07T07:56:39;8.55;;;2.50;;
47219;SDS011;32961;51.936;4.788;2023-08-07T07:59:08;13.57;;;2.40;;
47219;SDS011;32961;51.936;4.788;2023-08-07T08:01:36;14.98;;;2.20;;
47219;SDS011;32961;51.936;4.788;2023-08-07T08:04:04;10.45;;;2.00;;
47219;SDS011;32961;51.936;4.788;2023-08-07T08:06:32;15.30;;;2.20;;
47219;SDS011;32961;51.936;4.788;2023-08-07T08:09:00;8.48;;;2.53;;
47219;SDS011;32961;51.936;4.788;2023-08-07T08:11:30;10.30;;;2.40;;
47219;SDS011;32961;51.936;4.788;2023-08-07T08:13:58;7.03;;;2.03;;
47219;SDS011;32961;51.936;4.788;2023-08-07T08:16:27;11.50;;;2.35;;
47219;SDS011;32961;51.936;4.788;2023-08-07T08:18:55;10.60;;;2.30;;
47219;SDS011;32961;51.936;4.788;2023-08-07T08:21:23;13.40;;;3.10;;
47219;SDS011;32961;51.936;4.788;2023-08-07T08:23:51;11.65;;;2.80;;
47219;SDS011;32961;51.936;4.788;2023-08-07T08:26:19;9.30;;;2.47;;
47219;SDS011;32961;51.936;4.788;2023-08-07T08:28:46;9.70;;;1.77;;
47219;SDS011;32961;51.936;4.788;2023-08-07T08:31:14;15.73;;;2.72;;
47219;SDS011;32961;51.936;4.788;2023-08-07T08:33:44;5.10;;;1.80;;
47219;SDS011;32961;51.936;4.788;2023-08-07T08:36:11;13.55;;;2.10;;
47219;SDS011;32961;51.936;4.788;2023-08-07T08:38:39;8.68;;;1.70;;
47219;SDS011;32961;51.936;4.788;2023-08-07T08:41:09;7.63;;;1.65;;
47219;SDS011;32961;51.936;4.788;2023-08-07T08:43:37;9.43;;;1.67;;
47219;SDS011;32961;51.936;4.788;2023-08-07T08:46:08;16.88;;;2.45;;
47219;SDS011;32961;51.936;4.788;2023-08-07T08:48:38;8.15;;;2.00;;
47219;SDS011;32961;51.936;4.788;2023-08-07T08:51:09;4.10;;;1.55;;
47219;SDS011;32961;51.936;4.788;2023-08-07T08:53:39;9.65;;;2.28;;
47219;SDS011;32961;51.936;4.788;2023-08-07T08:56:07;9.30;;;2.72;;
47219;SDS011;32961;51.936;4.788;2023-08-07T08:58:36;12.13;;;2.28;;
47219;SDS011;32961;51.936;4.788;2023-08-07T09:01:05;11.40;;;2.13;;
47219;SDS011;32961;51.936;4.788;2023-08-07T09:03:35;6.32;;;2.20;;
47219;SDS011;32961;51.936;4.788;2023-08-07T09:06:03;6.40;;;1.88;;
47219;SDS011;32961;51.936;4.788;2023-08-07T09:08:34;8.95;;;1.80;;
47219;SDS011;32961;51.936;4.788;2023-08-07T09:11:02;7.75;;;1.50;;
47219;SDS011;32961;51.936;4.788;2023-08-07T09:13:31;9.07;;;2.00;;
47219;SDS011;32961;51.936;4.788;2023-08-07T09:16:02;13.55;;;1.95;;
47219;SDS011;32961;51.936;4.788;2023-08-07T09:18:32;6.18;;;1.88;;
47219;SDS011;32961;51.936;4.788;2023-08-07T09:21:01;7.40;;;1.80;;
47219;SDS011;32961;51.936;4.788;2023-08-07T09:23:29;8.02;;;1.80;;
47219;SDS011;32961;51.936;4.788;2023-08-07T09:26:00;11.75;;;2.08;;
47219;SDS011;32961;51.936;4.788;2023-08-07T09:28:28;7.22;;;1.80;;
47219;SDS011;32961;51.936;4.788;2023-08-07T09:30:57;7.70;;;2.00;;
47219;SDS011;32961;51.936;4.788;2023-08-07T09:33:26;5.93;;;1.60;;
47219;SDS011;32961;51.936;4.788;2023-08-07T09:35:56;7.68;;;1.88;;
47219;SDS011;32961;51.936;4.788;2023-08-07T09:38:27;8.20;;;1.83;;
47219;SDS011;32961;51.936;4.788;2023-08-07T09:40:57;5.57;;;1.90;;
47219;SDS011;32961;51.936;4.788;2023-08-07T09:43:26;5.80;;;1.50;;
47219;SDS011;32961;51.936;4.788;2023-08-07T09:46:01;7.15;;;2.05;;
47219;SDS011;32961;51.936;4.788;2023-08-07T09:48:29;15.10;;;3.53;;
47219;SDS011;32961;51.936;4.788;2023-08-07T09:51:00;6.00;;;1.80;;
47219;SDS011;32961;51.936;4.788;2023-08-07T09:53:29;9.05;;;1.73;;
47219;SDS011;32961;51.936;4.788;2023-08-07T09:55:58;5.60;;;1.90;;
47219;SDS011;32961;51.936;4.788;2023-08-07T09:58:27;7.18;;;1.92;;
47219;SDS011;32961;51.936;4.788;2023-08-07T10:00:56;10.20;;;2.33;;
47219;SDS011;32961;51.936;4.788;2023-08-07T10:03:26;7.20;;;1.70;;
47219;SDS011;32961;51.936;4.788;2023-08-07T10:05:55;7.45;;;1.60;;
47219;SDS011;32961;51.936;4.788;2023-08-07T10:08:23;6.18;;;1.85;;
47219;SDS011;32961;51.936;4.788;2023-08-07T10:10:51;5.82;;;1.90;;
47219;SDS011;32961;51.936;4.788;2023-08-07T10:13:19;7.47;;;1.95;;
47219;SDS011;32961;51.936;4.788;2023-08-07T10:16:05;9.05;;;1.88;;
47219;SDS011;32961;51.936;4.788;2023-08-07T10:18:34;6.15;;;1.90;;
47219;SDS011;32961;51.936;4.788;2023-08-07T10:21:03;9.45;;;2.40;;
47219;SDS011;32961;51.936;4.788;2023-08-07T10:23:33;6.13;;;1.63;;
47219;SDS011;32961;51.936;4.788;2023-08-07T10:26:02;6.63;;;1.60;;
47219;SDS011;32961;51.936;4.788;2023-08-07T10:28:33;3.58;;;1.50;;
47219;SDS011;32961;51.936;4.788;2023-08-07T10:31:06;4.53;;;1.50;;
47219;SDS011;32961;51.936;4.788;2023-08-07T10:33:34;3.53;;;1.45;;
47219;SDS011;32961;51.936;4.788;2023-08-07T10:36:08;7.28;;;1.50;;
47219;SDS011;32961;51.936;4.788;2023-08-07T10:38:37;6.00;;;1.70;;
47219;SDS011;32961;51.936;4.788;2023-08-07T10:41:08;6.30;;;1.58;;
47219;SDS011;32961;51.936;4.788;2023-08-07T10:43:37;8.48;;;1.77;;
47219;SDS011;32961;51.936;4.788;2023-08-07T10:46:08;9.32;;;1.65;;
47219;SDS011;32961;51.936;4.788;2023-08-07T10:48:38;7.43;;;1.77;;
47219;SDS011;32961;51.936;4.788;2023-08-07T10:51:07;6.80;;;1.90;;
47219;SDS011;32961;51.936;4.788;2023-08-07T10:53:35;7.97;;;1.95;;
47219;SDS011;32961;51.936;4.788;2023-08-07T10:56:06;6.97;;;1.70;;
47219;SDS011;32961;51.936;4.788;2023-08-07T10:58:36;8.68;;;1.67;;
47219;SDS011;32961;51.936;4.788;2023-08-07T11:01:19;7.20;;;1.75;;
47219;SDS011;32961;51.936;4.788;2023-08-07T11:04:05;4.47;;;1.23;;
47219;SDS011;32961;51.936;4.788;2023-08-07T11:06:35;9.10;;;1.60;;
47219;SDS011;32961;51.936;4.788;2023-08-07T11:09:05;4.43;;;1.35;;
47219;SDS011;32961;51.936;4.788;2023-08-07T11:11:35;3.58;;;1.45;;
47219;SDS011;32961;51.936;4.788;2023-08-07T11:14:07;6.78;;;1.60;;
47219;SDS011;32961;51.936;4.788;2023-08-07T11:16:36;4.28;;;1.60;;
47219;SDS011;32961;51.936;4.788;2023-08-07T11:19:04;6.47;;;1.50;;
47219;SDS011;32961;51.936;4.788;2023-08-07T11:21:33;3.47;;;1.52;;
47219;SDS011;32961;51.936;4.788;2023-08-07T11:24:01;4.25;;;1.30;;
47219;SDS011;32961;51.936;4.788;2023-08-07T11:26:29;6.57;;;1.40;;
47219;SDS011;32961;51.936;4.788;2023-08-07T11:28:57;5.25;;;1.70;;
47219;SDS011;32961;51.936;4.788;2023-08-07T11:31:25;5.07;;;1.60;;
47219;SDS011;32961;51.936;4.788;2023-08-07T11:33:55;4.15;;;1.50;;
47219;SDS011;32961;51.936;4.788;2023-08-07T11:36:25;8.48;;;2.08;;
47219;SDS011;32961;51.936;4.788;2023-08-07T11:38:53;6.65;;;1.50;;
47219;SDS011;32961;51.936;4.788;2023-08-07T11:41:21;7.43;;;1.40;;
47219;SDS011;32961;51.936;4.788;2023-08-07T11:43:49;5.00;;;1.95;;
47219;SDS011;32961;51.936;4.788;2023-08-07T11:46:16;6.65;;;1.48;;
47219;SDS011;32961;51.936;4.788;2023-08-07T11:48:44;8.70;;;1.85;;
47219;SDS011;32961;51.936;4.788;2023-08-07T11:51:14;3.45;;;1.40;;
47219;SDS011;32961;51.936;4.788;2023-08-07T11:53:43;4.97;;;1.50;;
47219;SDS011;32961;51.936;4.788;2023-08-07T11:56:11;9.02;;;1.98;;
47219;SDS011;32961;51.936;4.788;2023-08-07T11:58:42;4.60;;;1.48;;
47219;SDS011;32961;51.936;4.788;2023-08-07T12:01:13;5.22;;;1.60;;
47219;SDS011;32961;51.936;4.788;2023-08-07T12:03:50;4.07;;;1.63;;
47219;SDS011;32961;51.936;4.788;2023-08-07T12:06:23;4.30;;;1.45;;
47219;SDS011;32961;51.936;4.788;2023-08-07T12:08:53;5.43;;;1.60;;
47219;SDS011;32961;51.936;4.788;2023-08-07T12:11:23;5.35;;;1.48;;
47219;SDS011;32961;51.936;4.788;2023-08-07T12:13:51;5.20;;;1.40;;
47219;SDS011;32961;51.936;4.788;2023-08-07T12:16:19;4.82;;;1.70;;
47219;SDS011;32961;51.936;4.788;2023-08-07T12:18:48;5.32;;;1.60;;
47219;SDS011;32961;51.936;4.788;2023-08-07T12:21:18;7.75;;;1.80;;
47219;SDS011;32961;51.936;4.788;2023-08-07T12:23:50;6.43;;;1.95;;
47219;SDS011;32961;51.936;4.788;2023-08-07T12:26:19;5.95;;;1.80;;
47219;SDS011;32961;51.936;4.788;2023-08-07T12:28:47;4.47;;;2.03;;
47219;SDS011;32961;51.936;4.788;2023-08-07T12:31:15;5.90;;;1.77;;
47219;SDS011;32961;51.936;4.788;2023-08-07T12:33:44;5.45;;;1.83;;
47219;SDS011;32961;51.936;4.788;2023-08-07T12:36:12;6.18;;;2.33;;
47219;SDS011;32961;51.936;4.788;2023-08-07T12:38:43;5.30;;;1.88;;
47219;SDS011;32961;51.936;4.788;2023-08-07T12:41:13;6.22;;;2.10;;
47219;SDS011;32961;51.936;4.788;2023-08-07T12:43:44;7.75;;;1.95;;
47219;SDS011;32961;51.936;4.788;2023-08-07T12:46:12;5.15;;;1.73;;
47219;SDS011;32961;51.936;4.788;2023-08-07T12:48:43;6.00;;;1.52;;
47219;SDS011;32961;51.936;4.788;2023-08-07T12:51:11;5.63;;;1.30;;
47219;SDS011;32961;51.936;4.788;2023-08-07T12:53:39;3.38;;;1.42;;
47219;SDS011;32961;51.936;4.788;2023-08-07T12:56:07;3.25;;;1.40;;
47219;SDS011;32961;51.936;4.788;2023-08-07T12:58:36;3.60;;;1.77;;
47219;SDS011;32961;51.936;4.788;2023-08-07T13:01:08;3.70;;;1.60;;
47219;SDS011;32961;51.936;4.788;2023-08-07T13:03:36;3.10;;;1.70;;
47219;SDS011;32961;51.936;4.788;2023-08-07T13:06:04;5.13;;;2.17;;
47219;SDS011;32961;51.936;4.788;2023-08-07T13:08:33;8.20;;;2.33;;
47219;SDS011;32961;51.936;4.788;2023-08-07T13:11:02;4.47;;;1.83;;
47219;SDS011;32961;51.936;4.788;2023-08-07T13:13:29;7.90;;;2.28;;
47219;SDS011;32961;51.936;4.788;2023-08-07T13:15:59;4.88;;;2.50;;
47219;SDS011;32961;51.936;4.788;2023-08-07T13:18:27;10.45;;;2.28;;
47219;SDS011;32961;51.936;4.788;2023-08-07T13:20:54;4.57;;;1.83;;
47219;SDS011;32961;51.936;4.788;2023-08-07T13:23:23;7.00;;;2.28;;
47219;SDS011;32961;51.936;4.788;2023-08-07T13:25:51;8.02;;;2.55;;
47219;SDS011;32961;51.936;4.788;2023-08-07T13:28:19;7.97;;;2.17;;
47219;SDS011;32961;51.936;4.788;2023-08-07T13:30:47;9.43;;;2.22;;
47219;SDS011;32961;51.936;4.788;2023-08-07T13:33:18;3.83;;;1.77;;
47219;SDS011;32961;51.936;4.788;2023-08-07T13:35:47;3.22;;;1.90;;
47219;SDS011;32961;51.936;4.788;2023-08-07T13:38:15;4.78;;;1.98;;
47219;SDS011;32961;51.936;4.788;2023-08-07T13:40:45;5.35;;;1.92;;
47219;SDS011;32961;51.936;4.788;2023-08-07T13:43:12;6.30;;;1.98;;
47219;SDS011;32961;51.936;4.788;2023-08-07T13:45:41;2.83;;;1.90;;
47219;SDS011;32961;51.936;4.788;2023-08-07T13:48:09;6.35;;;2.03;;
47219;SDS011;32961;51.936;4.788;2023-08-07T13:50:38;5.60;;;2.05;;
47219;SDS011;32961;51.936;4.788;2023-08-07T13:53:07;7.15;;;2.30;;
47219;SDS011;32961;51.936;4.788;2023-08-07T13:58:09;4.13;;;1.73;;
47219;SDS011;32961;51.936;4.788;2023-08-07T14:00:37;6.10;;;2.22;;
47219;SDS011;32961;51.936;4.788;2023-08-07T14:03:07;3.10;;;1.70;;
47219;SDS011;32961;51.936;4.788;2023-08-07T14:05:36;4.22;;;1.73;;
47219;SDS011;32961;51.936;4.788;2023-08-07T14:08:06;4.40;;;2.10;;
47219;SDS011;32961;51.936;4.788;2023-08-07T14:10:35;2.67;;;1.45;;
47219;SDS011;32961;51.936;4.788;2023-08-07T14:13:05;4.07;;;1.77;;
47219;SDS011;32961;51.936;4.788;2023-08-07T14:15:33;7.20;;;1.95;;
47219;SDS011;32961;51.936;4.788;2023-08-07T14:18:01;3.20;;;1.70;;
47219;SDS011;32961;51.936;4.788;2023-08-07T14:20:29;4.78;;;1.55;;
47219;SDS011;32961;51.936;4.788;2023-08-07T14:22:57;3.58;;;1.45;;
47219;SDS011;32961;51.936;4.788;2023-08-07T14:25:46;3.75;;;1.60;;
47219;SDS011;32961;51.936;4.788;2023-08-07T14:28:17;2.08;;;1.20;;
47219;SDS011;32961;51.936;4.788;2023-08-07T14:30:45;2.30;;;1.35;;
47219;SDS011;32961;51.936;4.788;2023-08-07T14:33:13;4.05;;;1.20;;
47219;SDS011;32961;51.936;4.788;2023-08-07T14:35:41;2.92;;;1.30;;
47219;SDS011;32961;51.936;4.788;2023-08-07T14:38:09;2.22;;;1.33;;
47219;SDS011;32961;51.936;4.788;2023-08-07T14:40:37;4.00;;;1.50;;
47219;SDS011;32961;51.936;4.788;2023-08-07T14:43:08;3.13;;;1.52;;
47219;SDS011;32961;51.936;4.788;2023-08-07T14:45:37;3.72;;;1.38;;
47219;SDS011;32961;51.936;4.788;2023-08-07T14:48:05;3.22;;;1.52;;
47219;SDS011;32961;51.936;4.788;2023-08-07T14:50:33;2.67;;;1.77;;
47219;SDS011;32961;51.936;4.788;2023-08-07T14:53:01;4.20;;;1.55;;